sensor_id;sensor_type;location;lat;lon;timestamp;temperature;humidity
55693;DHT22;41590;53.366;5.212;2023-03-01T08:24:06;1.80;99.90
55693;DHT22;41590;53.366;5.212;2023-03-01T08:26:33;4.60;99.90
55693;DHT22;41590;53.366;5.212;2023-03-01T08:29:00;5.70;99.90
55693;DHT22;41590;53.366;5.212;2023-03-01T08:31:34;4.80;99.90
55693;DHT22;41590;53.366;5.212;2023-03-01T08:34:06;5.80;99.90
55693;DHT22;41590;53.366;5.212;2023-03-01T08:36:35;4.90;99.90
55693;DHT22;41590;53.366;5.212;2023-03-01T08:39:05;6.10;99.90
55693;DHT22;41590;53.366;5.212;2023-03-01T08:41:34;5.80;99.90
55693;DHT22;41590;53.366;5.212;2023-03-01T08:44:02;6.10;99.90
55693;DHT22;41590;53.366;5.212;2023-03-01T08:46:30;6.40;99.90
55693;DHT22;41590;53.366;5.212;2023-03-01T08:48:57;6.40;99.90
55693;DHT22;41590;53.366;5.212;2023-03-01T08:51:53;5.80;99.90
55693;DHT22;41590;53.366;5.212;2023-03-01T08:54:21;6.70;99.90
55693;DHT22;41590;53.366;5.212;2023-03-01T08:56:48;6.80;99.90
55693;DHT22;41590;53.366;5.212;2023-03-01T08:59:17;6.00;99.90
55693;DHT22;41590;53.366;5.212;2023-03-01T09:01:43;6.60;99.90
55693;DHT22;41590;53.366;5.212;2023-03-01T09:04:10;6.80;99.90
55693;DHT22;41590;53.366;5.212;2023-03-01T09:06:38;7.00;99.90
55693;DHT22;41590;53.366;5.212;2023-03-01T09:16:35;6.30;99.90
55693;DHT22;41590;53.366;5.212;2023-03-01T09:19:02;7.20;99.90
55693;DHT22;41590;53.366;5.212;2023-03-01T16:24:14;6.80;99.90
55693;DHT22;41590;53.366;5.212;2023-03-01T16:26:44;5.90;99.90
55693;DHT22;41590;53.366;5.212;2023-03-01T16:34:16;5.80;99.90
55693;DHT22;41590;53.366;5.212;2023-03-01T16:36:43;5.60;99.90
55693;DHT22;41590;53.366;5.212;2023-03-01T16:39:09;5.40;99.90
55693;DHT22;41590;53.366;5.212;2023-03-01T16:41:36;5.40;99.90
55693;DHT22;41590;53.366;5.212;2023-03-01T16:44:02;5.40;99.90
55693;DHT22;41590;53.366;5.212;2023-03-01T16:46:29;5.40;99.90
55693;DHT22;41590;53.366;5.212;2023-03-01T16:48:56;5.10;99.90
55693;DHT22;41590;53.366;5.212;2023-03-01T16:51:22;5.10;99.90
55693;DHT22;41590;53.366;5.212;2023-03-01T16:53:49;5.20;99.90
55693;DHT22;41590;53.366;5.212;2023-03-01T16:56:20;5.00;99.90
55693;DHT22;41590;53.366;5.212;2023-03-01T16:58:47;5.10;99.90
55693;DHT22;41590;53.366;5.212;2023-03-01T17:01:18;4.60;99.90
55693;DHT22;41590;53.366;5.212;2023-03-01T17:03:47;5.10;99.90
55693;DHT22;41590;53.366;5.212;2023-03-01T17:06:17;4.40;99.90
55693;DHT22;41590;53.366;5.212;2023-03-01T17:08:46;4.40;99.90
55693;DHT22;41590;53.366;5.212;2023-03-01T17:11:16;5.10;99.90
55693;DHT22;41590;53.366;5.212;2023-03-01T17:13:42;4.20;99.90
55693;DHT22;41590;53.366;5.212;2023-03-01T17:16:12;5.00;99.90
55693;DHT22;41590;53.366;5.212;2023-03-01T17:18:40;5.10;99.90
55693;DHT22;41590;53.366;5.212;2023-03-01T17:21:07;4.00;99.90
55693;DHT22;41590;53.366;5.212;2023-03-01T17:23:36;4.00;99.90
55693;DHT22;41590;53.366;5.212;2023-03-01T17:26:03;4.90;99.90
55693;DHT22;41590;53.366;5.212;2023-03-01T17:28:31;4.20;99.90
55693;DHT22;41590;53.366;5.212;2023-03-01T17:30:59;4.80;99.90
55693;DHT22;41590;53.366;5.212;2023-03-01T17:33:25;3.80;99.90
55693;DHT22;41590;53.366;5.212;2023-03-01T17:35:56;3.70;99.90
55693;DHT22;41590;53.366;5.212;2023-03-01T17:38:23;4.40;99.90
55693;DHT22;41590;53.366;5.212;2023-03-01T17:40:49;5.10;99.90
55693;DHT22;41590;53.366;5.212;2023-03-01T17:43:16;4.60;99.90
55693;DHT22;41590;53.366;5.212;2023-03-01T17:45:43;4.60;99.90
55693;DHT22;41590;53.366;5.212;2023-03-01T17:48:14;3.50;99.90
55693;DHT22;41590;53.366;5.212;2023-03-01T17:50:41;4.40;99.90
55693;DHT22;41590;53.366;5.212;2023-03-01T17:53:07;4.60;99.90
55693;DHT22;41590;53.366;5.212;2023-03-01T17:55:35;4.60;99.90
55693;DHT22;41590;53.366;5.212;2023-03-01T17:58:04;3.50;99.90
55693;DHT22;41590;53.366;5.212;2023-03-01T18:00:31;4.50;99.90
55693;DHT22;41590;53.366;5.212;2023-03-01T18:02:57;4.20;99.90
55693;DHT22;41590;53.366;5.212;2023-03-01T18:05:23;4.20;99.90
55693;DHT22;41590;53.366;5.212;2023-03-01T18:07:50;3.20;99.90
55693;DHT22;41590;53.366;5.212;2023-03-01T18:10:17;4.50;99.90
55693;DHT22;41590;53.366;5.212;2023-03-01T18:12:45;4.00;99.90
55693;DHT22;41590;53.366;5.212;2023-03-01T18:15:11;4.30;99.90
55693;DHT22;41590;53.366;5.212;2023-03-01T18:17:37;4.70;99.90
55693;DHT22;41590;53.366;5.212;2023-03-01T18:20:04;3.70;99.90
55693;DHT22;41590;53.366;5.212;2023-03-01T18:22:35;3.10;99.90
55693;DHT22;41590;53.366;5.212;2023-03-01T18:25:08;3.10;99.90
55693;DHT22;41590;53.366;5.212;2023-03-01T18:28:01;4.20;99.90
55693;DHT22;41590;53.366;5.212;2023-03-01T18:30:30;4.40;99.90
55693;DHT22;41590;53.366;5.212;2023-03-01T18:32:57;3.80;99.90
55693;DHT22;41590;53.366;5.212;2023-03-01T18:35:22;3.30;99.90
55693;DHT22;41590;53.366;5.212;2023-03-01T18:37:48;3.80;99.90
55693;DHT22;41590;53.366;5.212;2023-03-01T18:43:45;4.20;99.90
55693;DHT22;41590;53.366;5.212;2023-03-01T18:46:12;3.00;99.90
55693;DHT22;41590;53.366;5.212;2023-03-01T18:48:40;4.30;99.90
55693;DHT22;41590;53.366;5.212;2023-03-01T18:51:11;4.30;99.90
55693;DHT22;41590;53.366;5.212;2023-03-01T18:53:37;3.90;99.90
55693;DHT22;41590;53.366;5.212;2023-03-01T18:56:07;4.30;99.90
55693;DHT22;41590;53.366;5.212;2023-03-01T18:58:34;4.20;99.90
55693;DHT22;41590;53.366;5.212;2023-03-01T19:01:14;4.10;99.90
55693;DHT22;41590;53.366;5.212;2023-03-01T19:03:42;3.10;99.90
55693;DHT22;41590;53.366;5.212;2023-03-01T19:06:09;3.80;99.90
55693;DHT22;41590;53.366;5.212;2023-03-01T19:08:36;2.80;99.90
55693;DHT22;41590;53.366;5.212;2023-03-01T19:11:04;4.10;99.90
55693;DHT22;41590;53.366;5.212;2023-03-01T19:13:30;4.20;99.90
55693;DHT22;41590;53.366;5.212;2023-03-01T19:16:14;4.30;99.90
55693;DHT22;41590;53.366;5.212;2023-03-01T19:18:42;2.70;99.90
55693;DHT22;41590;53.366;5.212;2023-03-01T19:21:12;3.80;99.90
55693;DHT22;41590;53.366;5.212;2023-03-01T19:23:38;4.00;99.90
55693;DHT22;41590;53.366;5.212;2023-03-01T19:26:07;4.30;99.90
55693;DHT22;41590;53.366;5.212;2023-03-01T19:28:34;3.10;99.90
55693;DHT22;41590;53.366;5.212;2023-03-01T19:31:03;2.80;99.90
55693;DHT22;41590;53.366;5.212;2023-03-01T19:33:30;4.20;99.90
55693;DHT22;41590;53.366;5.212;2023-03-01T19:35:57;4.00;99.90
55693;DHT22;41590;53.366;5.212;2023-03-01T19:38:24;4.20;99.90
55693;DHT22;41590;53.366;5.212;2023-03-01T19:40:50;3.30;99.90
55693;DHT22;41590;53.366;5.212;2023-03-01T19:43:21;3.80;99.90
55693;DHT22;41590;53.366;5.212;2023-03-01T19:45:53;2.60;99.90
55693;DHT22;41590;53.366;5.212;2023-03-01T19:48:31;2.60;99.90
55693;DHT22;41590;53.366;5.212;2023-03-01T19:50:58;3.80;99.90
55693;DHT22;41590;53.366;5.212;2023-03-01T19:53:24;3.20;99.90
55693;DHT22;41590;53.366;5.212;2023-03-01T19:55:59;4.10;99.90
55693;DHT22;41590;53.366;5.212;2023-03-01T19:58:26;3.90;99.90
55693;DHT22;41590;53.366;5.212;2023-03-01T20:00:52;2.90;99.90
55693;DHT22;41590;53.366;5.212;2023-03-01T20:03:33;3.40;99.90
55693;DHT22;41590;53.366;5.212;2023-03-01T20:06:14;3.40;99.90
55693;DHT22;41590;53.366;5.212;2023-03-01T20:08:42;2.80;99.90
55693;DHT22;41590;53.366;5.212;2023-03-01T20:11:11;3.00;99.90
55693;DHT22;41590;53.366;5.212;2023-03-01T20:13:43;4.50;99.90
55693;DHT22;41590;53.366;5.212;2023-03-01T20:16:17;3.00;99.90
55693;DHT22;41590;53.366;5.212;2023-03-01T20:18:43;4.50;99.90
55693;DHT22;41590;53.366;5.212;2023-03-01T20:21:10;3.00;99.90
55693;DHT22;41590;53.366;5.212;2023-03-01T20:23:36;4.70;99.90
55693;DHT22;41590;53.366;5.212;2023-03-01T20:26:10;4.80;99.90
55693;DHT22;41590;53.366;5.212;2023-03-01T20:28:41;3.90;99.90
55693;DHT22;41590;53.366;5.212;2023-03-01T20:31:09;3.00;99.90
55693;DHT22;41590;53.366;5.212;2023-03-01T20:33:36;4.30;99.90
55693;DHT22;41590;53.366;5.212;2023-03-01T20:36:05;3.00;99.90
55693;DHT22;41590;53.366;5.212;2023-03-01T20:38:32;3.10;99.90
55693;DHT22;41590;53.366;5.212;2023-03-01T20:41:03;4.70;99.90
55693;DHT22;41590;53.366;5.212;2023-03-01T20:43:30;4.70;99.90
55693;DHT22;41590;53.366;5.212;2023-03-01T20:45:57;4.70;99.90
55693;DHT22;41590;53.366;5.212;2023-03-01T20:51:35;4.60;99.90
55693;DHT22;41590;53.366;5.212;2023-03-01T20:54:03;3.00;99.90
55693;DHT22;41590;53.366;5.212;2023-03-01T20:56:29;4.50;99.90
55693;DHT22;41590;53.366;5.212;2023-03-01T20:58:57;4.70;99.90
55693;DHT22;41590;53.366;5.212;2023-03-01T21:01:24;3.10;99.90
55693;DHT22;41590;53.366;5.212;2023-03-01T21:03:50;4.70;99.90
55693;DHT22;41590;53.366;5.212;2023-03-01T21:06:16;4.00;99.90
55693;DHT22;41590;53.366;5.212;2023-03-01T21:08:46;4.60;99.90
55693;DHT22;41590;53.366;5.212;2023-03-01T21:11:23;3.70;99.90
55693;DHT22;41590;53.366;5.212;2023-03-01T21:13:54;5.50;99.90
55693;DHT22;41590;53.366;5.212;2023-03-01T21:16:21;2.90;99.90
55693;DHT22;41590;53.366;5.212;2023-03-01T21:18:47;2.80;99.90
55693;DHT22;41590;53.366;5.212;2023-03-01T21:21:15;4.60;99.90
55693;DHT22;41590;53.366;5.212;2023-03-01T21:23:42;3.20;99.90
55693;DHT22;41590;53.366;5.212;2023-03-01T21:26:11;3.50;99.90
55693;DHT22;41590;53.366;5.212;2023-03-01T21:28:37;4.60;99.90
55693;DHT22;41590;53.366;5.212;2023-03-01T21:31:11;4.00;99.90
55693;DHT22;41590;53.366;5.212;2023-03-01T21:33:38;4.50;99.90
55693;DHT22;41590;53.366;5.212;2023-03-01T21:36:07;4.00;99.90
55693;DHT22;41590;53.366;5.212;2023-03-01T21:38:41;4.50;99.90
55693;DHT22;41590;53.366;5.212;2023-03-01T21:41:10;4.50;99.90
55693;DHT22;41590;53.366;5.212;2023-03-01T21:43:36;2.90;99.90
55693;DHT22;41590;53.366;5.212;2023-03-01T21:46:05;2.70;99.90
55693;DHT22;41590;53.366;5.212;2023-03-01T21:48:31;3.20;99.90
55693;DHT22;41590;53.366;5.212;2023-03-01T21:51:27;2.70;99.90
55693;DHT22;41590;53.366;5.212;2023-03-01T21:53:55;2.90;99.90
55693;DHT22;41590;53.366;5.212;2023-03-01T21:56:25;2.80;99.90
55693;DHT22;41590;53.366;5.212;2023-03-01T21:58:54;4.40;99.90
55693;DHT22;41590;53.366;5.212;2023-03-01T22:01:22;4.10;99.90
55693;DHT22;41590;53.366;5.212;2023-03-01T22:03:52;3.10;99.90
55693;DHT22;41590;53.366;5.212;2023-03-01T22:06:22;2.80;99.90
55693;DHT22;41590;53.366;5.212;2023-03-01T22:08:51;3.20;99.90
55693;DHT22;41590;53.366;5.212;2023-03-01T22:11:23;2.90;99.90
55693;DHT22;41590;53.366;5.212;2023-03-01T22:13:51;3.00;99.90
55693;DHT22;41590;53.366;5.212;2023-03-01T22:16:19;2.90;99.90
55693;DHT22;41590;53.366;5.212;2023-03-01T22:18:47;2.90;99.90
55693;DHT22;41590;53.366;5.212;2023-03-01T22:21:13;4.60;99.90
55693;DHT22;41590;53.366;5.212;2023-03-01T22:23:40;4.70;99.90
55693;DHT22;41590;53.366;5.212;2023-03-01T22:26:07;3.70;99.90
55693;DHT22;41590;53.366;5.212;2023-03-01T22:28:34;4.40;99.90
55693;DHT22;41590;53.366;5.212;2023-03-01T22:31:04;3.90;99.90
55693;DHT22;41590;53.366;5.212;2023-03-01T22:33:34;3.30;99.90
55693;DHT22;41590;53.366;5.212;2023-03-01T22:36:00;3.50;99.90
55693;DHT22;41590;53.366;5.212;2023-03-01T22:38:26;4.00;99.90
55693;DHT22;41590;53.366;5.212;2023-03-01T22:41:00;2.80;99.90
55693;DHT22;41590;53.366;5.212;2023-03-01T22:43:29;2.80;99.90
55693;DHT22;41590;53.366;5.212;2023-03-01T22:45:57;3.30;99.90
55693;DHT22;41590;53.366;5.212;2023-03-01T22:48:23;4.50;99.90
55693;DHT22;41590;53.366;5.212;2023-03-01T22:50:49;4.60;99.90
55693;DHT22;41590;53.366;5.212;2023-03-01T22:53:28;2.80;99.90
55693;DHT22;41590;53.366;5.212;2023-03-01T22:56:15;2.70;99.90
55693;DHT22;41590;53.366;5.212;2023-03-01T22:58:42;2.90;99.90
55693;DHT22;41590;53.366;5.212;2023-03-01T23:01:13;2.80;99.90
55693;DHT22;41590;53.366;5.212;2023-03-01T23:03:40;2.70;99.90
55693;DHT22;41590;53.366;5.212;2023-03-01T23:06:06;4.30;99.90
55693;DHT22;41590;53.366;5.212;2023-03-01T23:08:33;2.70;99.90
55693;DHT22;41590;53.366;5.212;2023-03-01T23:10:58;2.90;99.90
55693;DHT22;41590;53.366;5.212;2023-03-01T23:13:24;2.90;99.90
55693;DHT22;41590;53.366;5.212;2023-03-01T23:16:03;2.80;99.90
55693;DHT22;41590;53.366;5.212;2023-03-01T23:18:29;4.10;99.90
55693;DHT22;41590;53.366;5.212;2023-03-01T23:20:57;4.50;99.90
55693;DHT22;41590;53.366;5.212;2023-03-01T23:23:23;4.50;99.90
55693;DHT22;41590;53.366;5.212;2023-03-01T23:25:54;4.10;99.90
55693;DHT22;41590;53.366;5.212;2023-03-01T23:28:20;3.00;99.90
55693;DHT22;41590;53.366;5.212;2023-03-01T23:30:54;4.30;99.90
55693;DHT22;41590;53.366;5.212;2023-03-01T23:33:22;4.00;99.90
55693;DHT22;41590;53.366;5.212;2023-03-01T23:35:49;3.60;99.90
55693;DHT22;41590;53.366;5.212;2023-03-01T23:38:16;3.80;99.90
55693;DHT22;41590;53.366;5.212;2023-03-01T23:40:42;2.60;99.90
55693;DHT22;41590;53.366;5.212;2023-03-01T23:43:08;2.60;99.90
55693;DHT22;41590;53.366;5.212;2023-03-01T23:45:42;2.70;99.90
55693;DHT22;41590;53.366;5.212;2023-03-01T23:48:12;2.70;99.90
55693;DHT22;41590;53.366;5.212;2023-03-01T23:50:40;2.70;99.90
55693;DHT22;41590;53.366;5.212;2023-03-01T23:53:15;2.50;99.90
55693;DHT22;41590;53.366;5.212;2023-03-01T23:55:49;4.10;99.90
